Perryville, Pennsylvania
Current Conditions -  °F | °C
As of 12:54 AM on Monday 22 Dec 2014 (Local Time) from KIPT Reporting Station
Clear Clear  
Wind Chill: 22°   Ceiling: Unl
Heat Index: 22°   Visibility: 9mi
Dew Point: 17°   Wind: 0mph
Humidity: 82%   Direction: NA
Pressure: 30.32"   Gusts: NA
Location:  41.3181°N, 77.075°W
Report Text: KIPT 220554Z AUTO 00000KT 9SM CLR M06/M08 A3032 RMK AO2 SLP273 T10561083 11022 21061 58001
Loading
Personal Weather Stations






























Interactive Weather Map New forecast layout! Learn more

10-Day Weather Forecast

Advertisements
Track Severe Weather on mobile